Time;durP1;ratioP1;P1;durP2;ratioP2;P2;SDS_P1;SDS_P2;PMS_P1;PMS_P2;Temp;Humidity;BMP_temperature;BMP_pressure;BME280_temperature;BME280_humidity;BME280_pressure;Samples;Min_cycle;Max_cycle;Signal;HPM_P1;HPM_P2
2022/02/13 04:39:10;;;;;;;11.63;8.27;;;;;;;2.55;54.29;99288.47;6878338;28;20229;-90
2022/02/13 07:42:55;;;;;;;18.23;12.97;;;;;;;5.71;50.72;99217.03;6882111;28;20306;-87
2022/02/13 07:46:17;;;;;;;30.73;17.30;;;;;;;6.11;49.29;99176.91;6866224;28;20236;-86
2022/02/13 07:49:38;;;;;;;28.33;18.43;;;;;;;6.33;48.39;99185.13;6878828;28;20238;-87
2022/02/13 07:53:00;;;;;;;27.33;15.53;;;;;;;6.40;47.78;99180.75;6865023;28;20229;-87
2022/02/13 07:56:21;;;;;;;22.67;14.77;;;;;;;6.82;47.33;99172.44;6847952;29;20221;-86
2022/02/13 07:59:45;;;;;;;20.30;14.50;;;;;;;6.48;47.07;99164.66;6880931;28;20214;-85
2022/02/13 08:03:06;;;;;;;18.07;13.87;;;;;;;7.45;46.28;99178.53;6877889;28;20232;-82
2022/02/13 08:06:28;;;;;;;17.93;12.30;;;;;;;8.30;44.68;99194.41;6876883;28;20184;-83
2022/02/13 08:09:50;;;;;;;17.57;12.50;;;;;;;8.32;43.83;99181.63;6871233;28;20253;-83
2022/02/13 08:13:13;;;;;;;20.20;14.07;;;;;;;8.52;43.83;99197.03;6872828;28;20239;-84
2022/02/13 08:16:36;;;;;;;27.30;16.63;;;;;;;8.32;44.74;99178.94;6869853;28;20690;-84
2022/02/13 08:19:58;;;;;;;24.10;15.67;;;;;;;8.65;44.00;99180.25;6871966;28;20220;-83
2022/02/13 08:23:19;;;;;;;25.93;16.00;;;;;;;8.98;43.52;99177.88;6872866;28;20229;-84
2022/02/13 08:26:41;;;;;;;26.03;16.93;;;;;;;8.49;44.26;99156.28;6870509;28;20686;-85
2022/02/13 08:30:04;;;;;;;20.77;14.60;;;;;;;8.63;45.57;99167.03;6873562;28;20228;-85
2022/02/13 08:33:27;;;;;;;19.20;11.77;;;;;;;7.97;45.97;99182.22;6875027;28;20233;-85
2022/02/13 08:36:48;;;;;;;18.20;12.40;;;;;;;7.81;47.18;99169.75;6880420;28;20216;-82
2022/02/13 08:40:11;;;;;;;17.07;11.30;;;;;;;9.86;43.67;99159.69;6888418;28;20222;-83
2022/02/13 08:43:32;;;;;;;16.40;12.00;;;;;;;11.33;40.02;99137.75;6886620;28;20205;-83
2022/02/13 08:46:54;;;;;;;13.67;9.83;;;;;;;13.20;35.34;99102.84;6901374;28;20306;-83
2022/02/13 08:50:17;;;;;;;14.17;9.17;;;;;;;13.54;35.13;99143.13;6901502;28;20231;-84
2022/02/13 08:53:39;;;;;;;10.70;8.77;;;;;;;14.02;34.64;99142.44;6900264;28;20216;-84
2022/02/13 08:57:01;;;;;;;11.47;8.67;;;;;;;14.96;32.72;99115.97;6900827;28;20208;-83
2022/02/13 09:00:22;;;;;;;11.80;9.17;;;;;;;15.38;32.46;99109.66;6871234;28;20201;-85
2022/02/13 09:03:44;;;;;;;15.03;10.83;;;;;;;16.47;31.64;99127.31;6871310;28;20243;-86
2022/02/13 09:07:07;;;;;;;10.60;8.00;;;;;;;17.95;29.37;99119.16;6874045;28;20806;-82
2022/02/13 09:10:29;;;;;;;14.53;13.13;;;;;;;16.35;32.08;99116.38;6878846;28;20310;-84
2022/02/13 09:13:53;;;;;;;13.40;8.20;;;;;;;18.54;28.53;99107.66;6885337;28;20205;-83
2022/02/13 09:17:15;;;;;;;10.53;8.17;;;;;;;18.39;29.03;99105.50;6887297;28;20210;-84
2022/02/13 09:20:38;;;;;;;16.27;9.03;;;;;;;17.12;30.20;99090.72;6888073;28;20263;-84
2022/02/13 09:24:01;;;;;;;12.10;9.60;;;;;;;15.40;33.27;99096.69;6887407;28;20210;-82
2022/02/13 09:27:22;;;;;;;15.60;10.27;;;;;;;13.96;37.21;99104.53;6889699;28;20200;-83
2022/02/13 09:30:46;;;;;;;16.60;11.90;;;;;;;13.17;40.64;99103.31;6889271;28;20234;-84
2022/02/13 09:34:08;;;;;;;16.93;11.77;;;;;;;13.14;38.74;99090.19;6888648;28;20503;-86
2022/02/13 09:37:29;;;;;;;14.67;10.10;;;;;;;12.94;39.44;99098.38;6891395;28;20210;-80
2022/02/13 09:40:52;;;;;;;20.77;14.30;;;;;;;13.12;41.80;99092.28;6891719;28;20217;-83
2022/02/13 09:44:14;;;;;;;16.80;11.30;;;;;;;12.83;40.09;99073.81;6890823;28;20213;-82
2022/02/13 09:47:38;;;;;;;13.70;9.87;;;;;;;12.94;40.02;99059.63;6892157;28;20207;-81
2022/02/13 09:51:02;;;;;;;17.00;9.77;;;;;;;12.49;39.97;99025.41;6891610;28;20213;-81
2022/02/13 09:54:23;;;;;;;23.10;17.67;;;;;;;13.35;40.01;99079.91;6889188;28;20201;-83
2022/02/13 09:58:03;;;;;;;15.23;11.10;;;;;;;13.77;39.17;99067.53;6893495;28;20200;-84
2022/02/13 10:01:35;;;;;;;12.03;8.23;;;;;;;14.22;37.64;99071.81;6891658;28;20250;-82
2022/02/13 10:04:57;;;;;;;11.87;8.43;;;;;;;14.45;36.75;99080.19;6873885;28;20194;-84
2022/02/13 10:08:34;;;;;;;10.53;8.23;;;;;;;14.35;37.01;99031.84;6872108;28;20650;-84
2022/02/13 10:12:02;;;;;;;12.00;8.13;;;;;;;14.46;37.75;99066.38;6869499;28;20219;-86
2022/02/13 10:15:32;;;;;;;11.90;7.77;;;;;;;15.14;36.08;99058.94;6874555;28;20199;-84
2022/02/13 10:18:56;;;;;;;8.37;7.30;;;;;;;14.90;36.85;99041.69;6871733;28;20452;-84
2022/02/13 10:22:18;;;;;;;13.67;6.90;;;;;;;15.20;36.17;99036.28;6874323;28;20748;-84
2022/02/13 10:25:41;;;;;;;9.63;5.80;;;;;;;15.50;34.59;98989.09;6873108;28;20208;-85
2022/02/13 10:29:03;;;;;;;9.43;5.30;;;;;;;16.35;34.45;99020.31;6873376;28;20615;-83
2022/02/13 10:32:28;;;;;;;7.37;5.47;;;;;;;15.75;34.03;99016.91;6871643;28;20232;-85
2022/02/13 10:36:10;;;;;;;8.63;6.37;;;;;;;15.94;34.12;99014.97;6870468;28;20210;-83
2022/02/13 10:39:32;;;;;;;9.50;5.47;;;;;;;16.23;32.90;98993.09;6871829;28;20297;-82
2022/02/13 10:43:02;;;;;;;10.10;5.53;;;;;;;15.95;33.88;98990.25;6847877;29;20228;-83
2022/02/13 10:46:25;;;;;;;6.53;5.80;;;;;;;16.30;32.77;99004.69;6844448;28;20297;-85
2022/02/13 10:49:48;;;;;;;6.97;5.03;;;;;;;16.43;32.92;98993.59;6844142;28;20231;-87
2022/02/13 10:53:11;;;;;;;9.73;5.37;;;;;;;17.15;30.78;98984.00;6843424;29;20264;-87
2022/02/13 10:56:34;;;;;;;12.93;6.13;;;;;;;17.07;32.13;98971.56;6842011;29;20213;-86
2022/02/13 10:59:56;;;;;;;14.43;6.60;;;;;;;17.20;31.42;98979.44;6856920;28;20206;-87
2022/02/13 11:03:20;;;;;;;7.93;4.83;;;;;;;16.21;31.17;98973.47;6870945;28;20614;-86
2022/02/13 11:06:43;;;;;;;8.90;4.97;;;;;;;16.65;31.50;98961.97;6871405;28;20215;-85
2022/02/13 11:10:06;;;;;;;12.77;5.10;;;;;;;16.81;30.88;98942.16;6872625;28;20275;-85
2022/02/13 11:13:30;;;;;;;7.03;4.60;;;;;;;16.76;30.49;98941.22;6874701;28;20212;-85
2022/02/13 11:16:53;;;;;;;9.10;6.43;;;;;;;17.01;30.39;98939.84;6872276;28;20235;-85
2022/02/13 11:20:16;;;;;;;6.43;4.90;;;;;;;17.58;29.79;98936.00;6872499;28;20217;-85
2022/02/13 11:23:38;;;;;;;9.63;5.13;;;;;;;16.84;29.98;98932.66;6870401;28;20228;-85
2022/02/13 11:27:02;;;;;;;7.13;4.90;;;;;;;17.36;30.22;98924.16;6867512;28;20267;-85
2022/02/13 11:30:51;;;;;;;9.30;4.87;;;;;;;18.07;28.69;98918.00;6868106;28;20225;-85
2022/02/13 11:34:15;;;;;;;6.80;4.67;;;;;;;17.97;28.56;98917.84;6832351;28;20206;-84
2022/02/13 11:37:43;;;;;;;8.17;4.77;;;;;;;17.42;29.82;98906.03;6867916;28;20704;-85
2022/02/13 11:41:07;;;;;;;9.53;4.80;;;;;;;17.07;30.49;98908.06;6864963;28;20257;-84
2022/02/13 11:44:33;;;;;;;7.27;4.70;;;;;;;16.75;30.40;98899.53;6864089;28;20630;-85
2022/02/13 11:47:55;;;;;;;8.23;5.23;;;;;;;16.94;29.90;98889.31;6866286;28;20292;-85
2022/02/13 11:51:17;;;;;;;9.40;5.53;;;;;;;17.38;29.83;98881.16;6866881;28;20233;-85
2022/02/13 11:54:54;;;;;;;8.97;4.90;;;;;;;17.62;29.46;98858.09;6866636;28;20212;-85
2022/02/13 11:58:18;;;;;;;8.67;5.67;;;;;;;16.94;30.17;98851.16;6868457;28;20291;-85
2022/02/13 12:01:45;;;;;;;8.57;5.20;;;;;;;16.81;29.52;98874.06;6864827;28;20351;-85
2022/02/13 12:05:16;;;;;;;7.53;5.07;;;;;;;16.98;30.20;98860.53;6868268;28;20189;-85
2022/02/13 12:08:37;;;;;;;11.17;4.90;;;;;;;17.57;29.86;98849.03;6868983;28;20566;-85
2022/02/13 12:11:59;;;;;;;6.77;4.23;;;;;;;17.69;29.28;98847.03;6866112;28;20693;-85
2022/02/13 12:15:25;;;;;;;9.40;4.90;;;;;;;18.23;28.98;98838.00;6857332;28;20243;-85
2022/02/13 12:18:50;;;;;;;9.00;5.20;;;;;;;17.01;28.68;98835.50;6863964;28;20189;-85
2022/02/13 12:22:14;;;;;;;8.20;4.80;;;;;;;17.03;29.35;98809.66;6864698;28;20233;-84
2022/02/13 12:25:37;;;;;;;8.47;5.10;;;;;;;17.25;28.64;98817.94;6863685;28;20278;-85
2022/02/13 12:28:59;;;;;;;5.77;4.30;;;;;;;16.84;29.34;98785.63;6864072;28;20232;-85
2022/02/13 12:32:25;;;;;;;9.10;4.80;;;;;;;16.68;30.30;98784.53;6866840;28;20240;-85
2022/02/13 12:35:47;;;;;;;5.57;4.50;;;;;;;17.09;29.32;98794.22;6868007;28;20203;-84
2022/02/13 12:39:09;;;;;;;9.80;5.13;;;;;;;16.66;30.08;98791.28;6868097;28;20261;-85
2022/02/13 12:42:31;;;;;;;7.23;4.70;;;;;;;16.95;29.89;98782.00;6866542;28;20232;-85
2022/02/13 12:45:55;;;;;;;8.00;4.87;;;;;;;17.76;29.02;98763.97;6865644;28;20236;-85
2022/02/13 12:49:18;;;;;;;9.90;5.20;;;;;;;17.91;28.20;98772.34;6866549;28;20281;-85
2022/02/13 12:52:40;;;;;;;6.47;4.17;;;;;;;18.38;27.40;98769.97;6864473;28;20252;-83
2022/02/13 12:56:04;;;;;;;7.03;4.37;;;;;;;17.94;27.76;98762.84;6864463;28;20213;-84
2022/02/13 12:59:26;;;;;;;8.03;5.07;;;;;;;17.46;28.97;98758.06;6865033;28;20295;-86
2022/02/13 13:02:58;;;;;;;7.40;5.53;;;;;;;17.94;28.14;98750.03;6866244;28;20237;-84
2022/02/13 13:06:27;;;;;;;7.30;4.70;;;;;;;18.38;27.75;98739.94;6865041;28;20208;-84
2022/02/13 13:09:50;;;;;;;7.70;5.30;;;;;;;18.44;28.02;98730.72;6869256;28;20221;-84
2022/02/13 13:13:12;;;;;;;7.47;5.40;;;;;;;18.75;27.26;98716.31;6874137;28;20320;-83
2022/02/13 13:16:34;;;;;;;5.70;4.40;;;;;;;18.30;27.50;98727.56;6872678;28;20283;-83
2022/02/13 13:19:55;;;;;;;6.43;4.83;;;;;;;18.07;27.54;98716.09;6874197;28;20209;-84
2022/02/13 13:23:20;;;;;;;9.40;4.57;;;;;;;17.05;28.98;98714.88;6871660;28;20236;-84
2022/02/13 13:26:54;;;;;;;7.73;4.53;;;;;;;17.06;28.83;98721.19;6872174;28;20215;-83
2022/02/13 13:30:16;;;;;;;5.60;4.03;;;;;;;17.50;28.16;98692.97;6869653;28;20221;-85
2022/02/13 13:33:38;;;;;;;8.63;4.47;;;;;;;17.30;28.33;98666.25;6867633;28;20232;-86
2022/02/13 13:37:00;;;;;;;10.80;5.17;;;;;;;17.51;28.81;98703.63;6868636;28;20205;-86
2022/02/13 13:40:24;;;;;;;6.53;4.67;;;;;;;16.99;28.62;98683.19;6873605;28;20229;-88
2022/02/13 13:43:46;;;;;;;6.30;4.43;;;;;;;18.04;27.85;98671.03;6880354;28;20661;-86
2022/02/13 13:47:08;;;;;;;6.63;4.30;;;;;;;17.57;27.94;98666.38;6867424;28;20217;-84
2022/02/13 13:50:33;;;;;;;6.93;3.97;;;;;;;18.28;27.21;98657.94;6868664;28;20259;-84
2022/02/13 13:53:55;;;;;;;8.47;5.00;;;;;;;18.03;27.70;98652.19;6864648;28;20213;-84
2022/02/13 13:57:18;;;;;;;6.80;4.37;;;;;;;18.19;28.35;98635.72;6867318;28;20673;-85
2022/02/13 14:00:41;;;;;;;7.20;4.63;;;;;;;18.31;28.51;98641.88;6865947;28;20274;-83
2022/02/13 14:04:02;;;;;;;9.73;4.93;;;;;;;18.35;28.46;98637.53;6866130;28;20224;-84
2022/02/13 14:07:24;;;;;;;7.10;4.60;;;;;;;18.35;28.25;98632.06;6867224;28;20340;-86
2022/02/13 14:10:46;;;;;;;6.57;4.63;;;;;;;18.36;27.97;98625.56;6866933;28;20232;-84
2022/02/13 14:14:09;;;;;;;5.20;3.90;;;;;;;18.74;27.01;98602.66;6866740;28;20213;-85
2022/02/13 14:17:31;;;;;;;10.03;3.97;;;;;;;18.65;27.18;98588.69;6869170;28;20212;-83
2022/02/13 14:20:53;;;;;;;5.27;4.00;;;;;;;18.27;27.02;98556.09;6867223;28;20319;-87
2022/02/13 14:24:15;;;;;;;6.43;3.80;;;;;;;17.81;27.38;98558.69;6868398;28;20305;-84
2022/02/13 14:27:37;;;;;;;7.23;3.60;;;;;;;17.90;27.06;98559.84;6890165;28;20369;-83
2022/02/13 14:31:00;;;;;;;7.00;3.90;;;;;;;18.44;27.29;98597.78;6894427;28;20235;-84
2022/02/13 14:34:21;;;;;;;5.83;3.60;;;;;;;18.62;27.28;98582.88;6870395;28;20290;-84
2022/02/13 14:37:44;;;;;;;6.00;3.93;;;;;;;17.59;27.60;98583.25;6867773;28;20211;-84
2022/02/13 14:41:06;;;;;;;5.27;3.80;;;;;;;17.71;26.80;98583.94;6867784;28;20233;-84
2022/02/13 14:44:27;;;;;;;5.60;3.50;;;;;;;17.81;27.06;98586.75;6867563;28;20221;-84
2022/02/13 14:47:50;;;;;;;5.83;3.40;;;;;;;17.64;27.33;98577.84;6867154;28;20224;-84
2022/02/13 14:51:12;;;;;;;4.83;3.60;;;;;;;17.61;26.59;98572.91;6867624;28;20233;-84
2022/02/13 14:54:34;;;;;;;6.40;3.03;;;;;;;17.26;27.01;98579.78;6867665;28;20212;-84
2022/02/13 14:57:55;;;;;;;4.10;3.10;;;;;;;17.36;27.53;98580.75;6868109;28;20247;-84
2022/02/13 15:01:18;;;;;;;4.73;2.80;;;;;;;17.09;27.13;98536.25;6866172;28;20311;-84
2022/02/13 15:04:41;;;;;;;5.97;3.30;;;;;;;17.33;26.53;98554.00;6867986;28;20741;-84
2022/02/13 15:08:03;;;;;;;6.23;2.77;;;;;;;17.91;26.83;98559.59;6868595;28;20209;-82
2022/02/13 15:11:26;;;;;;;4.97;3.10;;;;;;;18.09;26.56;98561.94;6868362;28;20237;-84
2022/02/13 15:14:49;;;;;;;4.23;2.87;;;;;;;17.42;27.40;98549.78;6866652;28;20217;-83
2022/02/13 15:18:10;;;;;;;4.73;3.17;;;;;;;17.95;26.72;98555.28;6869124;28;20208;-84
2022/02/13 15:21:33;;;;;;;4.03;2.90;;;;;;;17.11;27.20;98533.28;6868880;28;20692;-85
2022/02/13 15:24:55;;;;;;;6.43;3.00;;;;;;;17.65;26.65;98554.97;6869262;28;20201;-84
2022/02/13 15:28:18;;;;;;;3.97;3.07;;;;;;;17.03;27.90;98540.00;6862508;28;21367;-84
2022/02/13 15:31:39;;;;;;;5.77;3.03;;;;;;;17.57;26.64;98532.78;6851147;28;20251;-83
2022/02/13 15:35:01;;;;;;;4.97;2.80;;;;;;;17.67;26.81;98539.16;6841399;29;20206;-84
2022/02/13 15:38:24;;;;;;;5.43;3.13;;;;;;;17.58;27.07;98539.88;6868649;28;20220;-84
2022/02/13 15:41:46;;;;;;;3.47;3.00;;;;;;;17.17;27.05;98522.19;6870163;28;20307;-84
2022/02/13 15:45:08;;;;;;;3.47;2.57;;;;;;;17.35;26.97;98515.59;6868558;28;20218;-84
2022/02/13 15:48:30;;;;;;;3.73;2.87;;;;;;;17.50;27.29;98526.69;6855437;28;20231;-84
2022/02/13 15:51:52;;;;;;;4.80;3.07;;;;;;;17.33;27.35;98506.88;6854371;28;20232;-84
2022/02/13 15:55:15;;;;;;;2.83;2.60;;;;;;;16.66;27.71;98505.44;6870930;28;20285;-84
2022/02/13 15:58:36;;;;;;;5.27;2.70;;;;;;;16.77;28.19;98502.63;6890135;28;20250;-83
2022/02/13 16:01:59;;;;;;;7.10;3.80;;;;;;;16.81;28.10;98494.78;6884595;28;20218;-84
2022/02/13 16:05:21;;;;;;;4.90;3.33;;;;;;;16.94;28.78;98481.59;6849663;28;20662;-82
2022/02/13 16:08:42;;;;;;;4.97;3.10;;;;;;;16.47;29.17;98480.41;6842240;29;20300;-84
2022/02/13 16:12:06;;;;;;;5.33;4.27;;;;;;;16.21;29.58;98472.09;6853398;28;20252;-85
2022/02/13 16:15:30;;;;;;;6.23;3.80;;;;;;;16.11;30.57;98493.69;6865439;28;20657;-84
2022/02/13 16:18:52;;;;;;;8.77;5.60;;;;;;;15.22;32.77;98490.97;6876301;28;20219;-83
2022/02/13 16:22:13;;;;;;;9.80;5.53;;;;;;;14.81;34.50;98485.78;6870126;28;20229;-84
2022/02/13 16:25:35;;;;;;;7.87;5.77;;;;;;;14.60;35.14;98483.69;6875007;28;20217;-84
2022/02/13 16:28:58;;;;;;;10.20;6.00;;;;;;;14.58;34.92;98485.81;6869800;28;20209;-84
2022/02/13 16:32:19;;;;;;;8.70;5.73;;;;;;;14.48;35.17;98469.31;6856718;28;20589;-84
2022/02/13 16:35:41;;;;;;;8.43;5.47;;;;;;;14.65;35.12;98478.38;6877891;28;20214;-84
2022/02/13 16:39:04;;;;;;;7.50;5.00;;;;;;;14.12;36.65;98480.38;6890210;28;20197;-85
2022/02/13 16:42:26;;;;;;;9.23;5.27;;;;;;;13.94;37.05;98475.06;6855470;28;20232;-82
2022/02/13 16:45:50;;;;;;;9.63;5.10;;;;;;;13.26;37.78;98422.41;6857852;28;20216;-84
2022/02/13 16:57:41;;;;;;;7.87;6.07;;;;;;;12.78;39.40;98452.19;6785878;29;20191;-87
2022/02/13 17:01:05;;;;;;;17.33;8.90;;;;;;;12.42;39.89;98435.16;6784220;29;20353;-87
2022/02/13 17:04:27;;;;;;;9.43;6.60;;;;;;;12.42;40.25;98465.75;6793194;29;20212;-86
2022/02/13 17:07:48;;;;;;;9.53;6.80;;;;;;;12.44;40.20;98462.78;6771661;29;20203;-86
2022/02/13 17:11:10;;;;;;;9.00;6.13;;;;;;;12.15;40.56;98450.03;6792779;29;20240;-86
2022/02/13 17:14:32;;;;;;;8.00;5.97;;;;;;;11.57;41.20;98400.88;6769414;29;20342;-87
2022/02/13 17:17:55;;;;;;;11.63;7.30;;;;;;;11.76;41.50;98469.31;6771085;29;20218;-91
2022/02/13 17:21:16;;;;;;;9.67;6.47;;;;;;;11.76;41.37;98451.22;6796910;29;20232;-90
2022/02/13 17:24:38;;;;;;;8.27;5.80;;;;;;;11.61;41.96;98469.63;6802779;29;20225;-92
2022/02/13 17:28:00;;;;;;;11.53;5.90;;;;;;;11.48;42.13;98469.72;6805089;28;20207;-90
2022/02/13 17:31:22;;;;;;;11.77;5.77;;;;;;;11.15;42.64;98433.19;6886924;28;20236;-89
2022/02/13 17:34:45;;;;;;;12.63;8.03;;;;;;;11.19;42.57;98467.63;6885635;28;20205;-89
2022/02/13 17:38:08;;;;;;;14.10;8.70;;;;;;;10.95;42.52;98424.38;6886156;28;20207;-89
2022/02/13 17:41:30;;;;;;;13.17;7.87;;;;;;;10.98;42.78;98475.22;6892733;28;20221;-89
2022/02/13 17:44:52;;;;;;;12.17;9.40;;;;;;;10.73;43.40;98479.66;6891731;28;20207;-92
2022/02/13 17:48:14;;;;;;;10.47;7.83;;;;;;;10.50;43.10;98447.84;6889929;28;20235;-89
2022/02/13 17:51:37;;;;;;;11.43;7.27;;;;;;;10.61;43.52;98476.81;6891062;28;20233;-88
2022/02/13 17:54:59;;;;;;;15.97;10.57;;;;;;;10.49;43.33;98464.22;6886958;28;20212;-88
2022/02/13 17:58:20;;;;;;;17.53;9.83;;;;;;;10.45;43.46;98457.63;6884964;28;20233;-89
2022/02/13 18:01:42;;;;;;;29.20;15.40;;;;;;;10.15;43.49;98470.75;6883064;28;20229;-91
2022/02/13 18:05:05;;;;;;;9.80;7.77;;;;;;;10.23;43.62;98459.75;6883024;28;20203;-90
2022/02/13 18:08:28;;;;;;;7.93;6.67;;;;;;;10.17;43.65;98449.78;6883197;28;20205;-90
2022/02/13 18:11:50;;;;;;;9.43;6.83;;;;;;;9.85;43.52;98410.28;6877721;28;20229;-90
2022/02/13 18:15:11;;;;;;;9.70;6.20;;;;;;;9.80;42.95;98391.22;6886293;28;20211;-91
2022/02/13 18:18:33;;;;;;;6.53;4.77;;;;;;;9.98;42.82;98429.09;6885671;28;20193;-90
2022/02/13 18:21:54;;;;;;;6.80;4.73;;;;;;;9.82;42.92;98436.78;6877237;28;20229;-90
2022/02/13 18:25:17;;;;;;;6.10;4.63;;;;;;;9.97;42.15;98443.59;6872779;28;20221;-90
2022/02/13 18:28:39;;;;;;;7.27;4.57;;;;;;;10.24;41.12;98414.75;6870451;28;20211;-90
2022/02/13 18:32:01;;;;;;;5.30;4.53;;;;;;;10.62;40.63;98429.16;6869556;28;20237;-90
2022/02/13 18:35:22;;;;;;;7.60;4.60;;;;;;;10.15;40.73;98378.34;6869787;28;20221;-89
2022/02/13 18:38:45;;;;;;;8.93;5.87;;;;;;;10.58;40.50;98427.91;6870706;28;20205;-89
2022/02/13 18:42:08;;;;;;;12.97;7.73;;;;;;;10.13;41.05;98375.84;6870138;28;20233;-90
2022/02/13 18:45:30;;;;;;;9.13;6.50;;;;;;;9.56;42.50;98354.22;6870250;28;20217;-90
2022/02/13 18:48:52;;;;;;;10.73;7.13;;;;;;;9.70;42.40;98371.97;6870085;28;20201;-90
2022/02/13 18:52:13;;;;;;;7.53;5.90;;;;;;;9.61;43.34;98431.63;6869721;28;20268;-90
2022/02/13 18:55:35;;;;;;;7.43;5.50;;;;;;;9.27;44.64;98434.53;6869171;28;20584;-90
2022/02/13 18:58:58;;;;;;;9.67;6.60;;;;;;;8.43;45.29;98333.06;6869170;28;20707;-89
2022/02/13 19:02:20;;;;;;;10.30;5.60;;;;;;;9.02;45.15;98421.88;6880224;28;20232;-90
2022/02/13 19:05:42;;;;;;;8.00;6.00;;;;;;;9.02;44.86;98410.09;6868615;28;20212;-89
2022/02/13 19:09:09;;;;;;;8.30;5.53;;;;;;;8.73;45.00;98373.84;6872307;28;20674;-89
2022/02/13 19:12:34;;;;;;;8.27;6.03;;;;;;;8.56;46.32;98418.25;6881273;28;20243;-89
2022/02/13 19:15:58;;;;;;;9.27;5.57;;;;;;;8.50;45.76;98413.69;6881141;28;20215;-89
2022/02/13 19:19:20;;;;;;;7.53;5.10;;;;;;;8.44;45.13;98384.94;6876900;28;20584;-91
2022/02/13 19:22:43;;;;;;;7.57;5.33;;;;;;;8.59;44.69;98407.94;6879442;28;20261;-89
2022/02/13 19:28:13;;;;;;;7.17;5.03;;;;;;;8.63;44.87;98414.56;6877935;28;20205;-88
2022/02/13 19:29:54;;;;;;;7.97;5.37;;;;;;;8.28;44.19;98353.06;6877217;28;20227;-91
2022/02/13 19:33:18;;;;;;;6.63;5.03;;;;;;;8.96;43.27;98401.19;6879874;28;20225;-88
2022/02/13 19:36:40;;;;;;;7.70;5.47;;;;;;;8.38;43.52;98318.59;6882071;28;20216;-89
2022/02/13 19:40:02;;;;;;;10.23;6.40;;;;;;;8.82;43.74;98397.66;6880496;28;20692;-90
2022/02/13 19:43:23;;;;;;;8.27;6.03;;;;;;;9.07;42.93;98374.50;6877331;28;20236;-90
2022/02/13 19:46:45;;;;;;;8.53;5.83;;;;;;;8.47;43.09;98293.19;6876426;28;20201;-89
2022/02/13 19:50:09;;;;;;;11.33;6.00;;;;;;;8.78;43.10;98345.31;6880670;28;20220;-87
2022/02/13 19:53:31;;;;;;;7.63;6.17;;;;;;;8.85;43.81;98381.09;6881233;28;20239;-87
2022/02/13 19:56:53;;;;;;;9.73;6.90;;;;;;;8.45;44.33;98346.31;6879584;28;20567;-89
2022/02/13 20:00:17;;;;;;;8.53;6.47;;;;;;;8.83;43.82;98355.50;6872800;28;20217;-89
2022/02/13 20:03:38;;;;;;;11.70;6.13;;;;;;;8.74;44.05;98388.94;6870820;28;20577;-89
2022/02/13 20:07:01;;;;;;;9.73;7.40;;;;;;;7.88;46.06;98389.63;6870969;28;20209;-89
2022/02/13 20:10:23;;;;;;;15.13;10.13;;;;;;;8.23;45.79;98377.84;6878260;28;20217;-89
2022/02/13 20:13:45;;;;;;;12.37;7.77;;;;;;;8.12;45.87;98369.47;6873887;28;20240;-89
2022/02/13 20:17:07;;;;;;;12.37;7.87;;;;;;;7.70;45.87;98302.59;6872509;28;20208;-88
2022/02/13 20:20:29;;;;;;;9.80;7.13;;;;;;;8.13;45.57;98369.28;6868519;28;20443;-88
2022/02/13 20:23:52;;;;;;;9.87;6.23;;;;;;;7.87;45.96;98346.88;6857363;28;20297;-88
2022/02/13 20:27:16;;;;;;;8.97;6.27;;;;;;;7.42;45.52;98277.72;6875947;28;20212;-87
2022/02/13 20:30:38;;;;;;;8.47;6.03;;;;;;;8.28;44.97;98372.69;6874766;28;20225;-87
2022/02/13 20:34:00;;;;;;;9.90;6.10;;;;;;;7.94;44.98;98315.50;6871919;28;20231;-87
2022/02/13 20:37:22;;;;;;;10.40;5.10;;;;;;;8.38;44.69;98357.00;6873347;28;20219;-87
2022/02/13 20:40:45;;;;;;;7.40;5.57;;;;;;;7.84;44.55;98294.41;6874874;28;20233;-88
2022/02/13 21:00:54;;;;;;;8.17;5.47;;;;;;;8.10;45.73;98371.53;6696280;29;20237;-86
2022/02/13 21:04:16;;;;;;;6.77;5.20;;;;;;;7.82;45.88;98352.84;6729471;29;20218;-87
2022/02/13 21:07:38;;;;;;;6.80;5.30;;;;;;;7.80;46.06;98338.81;6738714;29;20215;-86
2022/02/13 21:11:00;;;;;;;5.40;4.77;;;;;;;7.94;46.10;98353.94;6739742;29;20236;-87
2022/02/13 21:14:23;;;;;;;6.40;5.07;;;;;;;7.47;46.97;98320.84;6721161;29;20223;-86
2022/02/13 21:17:45;;;;;;;7.57;5.10;;;;;;;7.55;47.26;98332.25;6718067;29;20219;-88
2022/02/13 21:21:06;;;;;;;8.37;5.40;;;;;;;7.38;47.49;98325.53;6709123;29;20237;-85
2022/02/13 21:24:28;;;;;;;6.93;5.40;;;;;;;7.63;47.33;98339.31;6729579;29;20256;-86
2022/02/13 21:27:50;;;;;;;7.00;4.83;;;;;;;7.39;47.71;98337.09;6742098;29;20241;-86
2022/02/13 21:31:13;;;;;;;6.37;5.77;;;;;;;7.10;48.58;98329.25;6846503;28;20294;-86
2022/02/13 21:34:34;;;;;;;7.07;5.50;;;;;;;7.37;48.57;98331.13;6850156;28;20210;-87
2022/02/13 21:37:57;;;;;;;9.73;5.30;;;;;;;7.28;48.52;98329.59;6865020;28;20216;-86
2022/02/13 21:41:19;;;;;;;6.03;5.00;;;;;;;6.92;49.00;98321.72;6868698;28;20233;-87
2022/02/13 21:44:42;;;;;;;7.47;5.97;;;;;;;6.78;49.11;98262.84;6850143;28;20245;-86
2022/02/13 21:48:06;;;;;;;6.90;5.80;;;;;;;6.75;48.97;98253.34;6851488;29;20220;-86
2022/02/13 21:51:28;;;;;;;10.47;5.83;;;;;;;6.47;49.35;98273.91;6852009;29;20237;-86
2022/02/13 21:54:50;;;;;;;9.57;6.90;;;;;;;6.57;50.03;98317.28;6846579;28;20226;-87
2022/02/13 21:58:12;;;;;;;11.47;5.87;;;;;;;7.06;49.36;98314.56;6849482;28;20236;-86
